Flight Track Log - Related Links

Times and Time Zones

All times are in EDT time to prevent confusion due to time zone crossing. See the N23139 flight status page for this flight to view local times or setup timezone preferences in your user account.

Time Position Orientation Groundspeed Altitude Reporting Facility
EDT Latitude Longitude Course Direction KTS MPH feet Rate Location/Type
Tue 07:06:50 PM 29.9764 -95.2983 30° Northeast 155 178 700  Level Houston Center
Tue 07:07:33 PM 29.9947 -95.2672 56° Northeast 194 223 1,900 1,558 Climbing Houston Center
Tue 07:08:07 PM 30.0256 -95.2519 23° Northeast 211 243 2,700 1,770 Climbing Houston Center
Tue 07:08:34 PM 30.0589 -95.2353 23° Northeast 269 310 3,700 2,323 Climbing Houston Center
Tue 07:09:00 PM 30.3273 -95.1946 14° North  Level FlightAware Approximate
Tue 07:09:09 PM 30.0922 -95.2189 23° Northeast 250 288 5,100  Level Houston Center
Tue 07:09:36 PM 30.1314 -95.2022 20° North 281 323 6,400 2,226 Climbing Houston Center
Tue 07:10:00 PM 30.4412 -95.1453 27° Northeast  Level FlightAware Approximate
Tue 07:10:11 PM 30.1697 -95.1975 North 288 331 7,400  Level Houston Center
Tue 07:11:00 PM 30.5511 -95.0882 30° Northeast  Level FlightAware Approximate
Tue 07:11:13 PM 30.2511 -95.1869 North 294 338 9,800  Level Houston Center
Tue 07:12:00 PM 30.6545 -95.0137 30° Northeast  Level FlightAware Approximate
Tue 07:12:15 PM 30.3378 -95.1758 North 310 357 11,400  Level Houston Center
Tue 07:13:17 PM 30.4494 -95.1594 North 351 404 12,700 1,258 Climbing Houston Center
Tue 07:14:19 PM 30.5450 -95.1017 28° Northeast 387 445 14,000 1,355 Climbing Houston Center
Tue 07:15:21 PM 30.6411 -95.0419 28° Northeast 389 448 15,500 1,488 Climbing Houston Center
Tue 07:16:24 PM 30.7381 -94.9819 28° Northeast 394 453 17,100 1,680 Climbing Houston Center
Tue 07:17:26 PM 30.8542 -94.9103 28° Northeast 393 452 19,000 1,548 Climbing Houston Center
Tue 07:18:28 PM 30.9525 -94.8483 28° Northeast 399 459 20,300 1,210 Climbing Houston Center
Tue 07:19:30 PM 31.0539 -94.7853 28° Northeast 411 473 21,500 1,189 Climbing Houston Center
Tue 07:20:19 PM 31.1389 -94.7292 29° Northeast 409 471 22,500 1,211 Climbing Fort Worth Center
Tue 07:21:19 PM 31.2439 -94.6606 29° Northeast 409 471 23,700 756 Climbing Fort Worth Center
Tue 07:22:18 PM 31.3508 -94.5892 30° Northeast 420 483 24,000 151 Climbing Fort Worth Center
Tue 07:23:18 PM 31.4578 -94.5153 31° Northeast 454 522 24,000 298 Level Fort Worth Center
Tue 07:24:19 PM 31.5708 -94.4361 31° Northeast 469 540 24,600 900 Climbing Fort Worth Center
Tue 07:25:18 PM 31.6817 -94.3594 30° Northeast 464 534 25,800 1,100 Climbing Fort Worth Center
Tue 07:26:19 PM 31.7883 -94.2850 31° Northeast 453 521 26,800 992 Climbing Fort Worth Center
Tue 07:27:19 PM 31.8950 -94.2106 31° Northeast 446 513 27,800 950 Climbing Fort Worth Center
Tue 07:28:19 PM 31.9997 -94.1383 30° Northeast 441 507 28,700 958 Climbing Fort Worth Center
Tue 07:29:18 PM 32.1019 -94.0633 32° Northeast 436 502 29,700 950 Climbing Fort Worth Center
Tue 07:30:19 PM 32.1922 -93.9964 32° Northeast 436 502 30,600 1,050 Climbing Fort Worth Center
Tue 07:31:18 PM 32.3169 -93.9081 31° Northeast 436 502 31,800 1,100 Climbing Fort Worth Center
Tue 07:32:19 PM 32.4214 -93.8300 32° Northeast 436 502 32,800 1,000 Climbing Fort Worth Center
Tue 07:33:18 PM 32.5278 -93.7569 30° Northeast 441 507 33,800 950 Climbing Fort Worth Center
Tue 07:34:19 PM 32.6319 -93.6811 32° Northeast 441 507 34,700 600 Climbing Fort Worth Center
Tue 07:35:18 PM 32.7403 -93.6050 31° Northeast 441 507 35,000 150 Climbing Fort Worth Center
Tue 07:36:19 PM 32.8506 -93.5261 31° Northeast 441 507 35,000  Level Fort Worth Center
Tue 07:37:18 PM 32.9669 -93.4419 31° Northeast 454 522 35,000  Level Fort Worth Center
Tue 07:39:10 PM 33.1825 -93.2886 31° Northeast 510 587 35,000  Level Memphis Center
Tue 07:40:10 PM 33.2992 -93.2031 31° Northeast 504 580 35,000  Level Memphis Center
Tue 07:41:10 PM 33.4139 -93.1197 31° Northeast 494 568 35,000  Level Memphis Center
Tue 07:42:10 PM 33.5200 -93.0433 31° Northeast 494 568 35,000  Level Memphis Center
Tue 07:43:10 PM 33.6386 -92.9569 31° Northeast 494 568 35,000  Level Memphis Center
Tue 07:44:10 PM 33.7550 -92.8756 30° Northeast 488 562 35,000  Level Memphis Center
Tue 07:45:10 PM 33.8717 -92.7889 32° Northeast 488 562 35,000  Level Memphis Center
Tue 07:46:10 PM 33.9836 -92.7069 31° Northeast 482 555 35,000  Level Memphis Center
Tue 07:47:10 PM 34.1067 -92.6100 33° Northeast 482 555 35,000  Level Memphis Center
Tue 07:48:10 PM 34.2228 -92.5225 32° Northeast 482 555 35,000  Level Memphis Center
Tue 07:49:10 PM 34.3369 -92.4372 32° Northeast 487 560 35,000  Level Memphis Center
Tue 07:50:10 PM 34.4553 -92.3494 31° Northeast 487 560 35,000  Level Memphis Center
Tue 07:51:10 PM 34.5736 -92.2589 32° Northeast 492 566 35,000  Level Memphis Center
Tue 07:52:10 PM 34.6856 -92.1681 34° Northeast 487 560 35,000  Level Memphis Center
Tue 07:53:10 PM 34.7831 -92.0461 46° Northeast 487 560 35,000  Level Memphis Center
Tue 07:54:10 PM 34.8767 -91.9267 46° Northeast 487 560 35,000  Level Memphis Center
Tue 07:55:10 PM 34.9719 -91.8017 47° Northeast 487 560 35,000  Level Memphis Center
Tue 07:56:10 PM 35.0672 -91.6814 46° Northeast 493 567 35,000  Level Memphis Center
Tue 07:57:10 PM 35.1581 -91.5583 48° Northeast 493 567 35,000  Level Memphis Center
Tue 07:58:10 PM 35.2531 -91.4403 45° Northeast 493 567 35,000  Level Memphis Center
Tue 07:59:10 PM 35.3500 -91.3167 46° Northeast 493 567 35,000  Level Memphis Center
Tue 08:00:10 PM 35.4425 -91.1956 47° Northeast 488 562 35,000  Level Memphis Center
Tue 08:01:10 PM 35.5311 -91.0714 49° Northeast 488 562 35,000  Level Memphis Center
Tue 08:02:10 PM 35.6275 -90.9444 47° Northeast 488 562 35,000  Level Memphis Center
Tue 08:03:10 PM 35.7219 -90.8250 46° Northeast 488 562 35,000  Level Memphis Center
Tue 08:04:10 PM 35.8183 -90.6975 47° Northeast 488 562 35,000  Level Memphis Center
Tue 08:05:10 PM 35.9103 -90.5722 48° Northeast 493 567 35,000  Level Memphis Center
Tue 08:06:10 PM 36.0064 -90.4467 47° Northeast 493 567 35,000  Level Memphis Center
Tue 08:07:10 PM 36.0981 -90.3211 48° Northeast 493 567 35,000  Level Memphis Center
Tue 08:08:10 PM 36.1919 -90.1950 47° Northeast 488 562 35,000  Level Memphis Center
Tue 08:09:10 PM 36.2856 -90.0711 47° Northeast 488 562 35,000  Level Memphis Center
Tue 08:10:10 PM 36.3808 -89.9444 47° Northeast 488 562 35,000  Level Memphis Center
Tue 08:11:10 PM 36.4639 -89.8306 48° Northeast 488 562 35,000  Level Memphis Center
Tue 08:12:10 PM 36.5592 -89.7033 47° Northeast 488 562 35,000  Level Memphis Center
Tue 08:13:10 PM 36.6544 -89.5758 47° Northeast 488 562 35,000  Level Memphis Center
Tue 08:14:10 PM 36.7450 -89.4456 49° Northeast 488 562 35,000  Level Memphis Center
Tue 08:15:10 PM 36.8378 -89.3175 48° Northeast 493 567 35,000  Level Memphis Center
Tue 08:16:10 PM 36.9325 -89.1889 47° Northeast 493 567 35,000  Level Memphis Center
Tue 08:17:10 PM 37.0231 -89.0603 49° Northeast 488 562 35,000  Level Memphis Center
Tue 08:18:10 PM 37.1153 -88.9314 48° Northeast 488 562 35,000  Level Memphis Center
Tue 08:19:10 PM 37.2075 -88.8022 48° Northeast 488 562 35,000  Level Memphis Center
Tue 08:20:10 PM 37.3017 -88.6725 48° Northeast 488 562 35,000  Level Memphis Center
Tue 08:21:10 PM 37.3894 -88.5453 49° Northeast 488 562 35,000  Level Memphis Center
Tue 08:22:10 PM 37.4833 -88.4150 48° Northeast 488 562 35,000  Level Memphis Center
Tue 08:22:38 PM 37.5156 -88.3553 56° Northeast 495 570 35,000  Level Indianapolis Center
Tue 08:23:40 PM 37.6178 -88.2086 49° Northeast 498 573 35,000  Level Indianapolis Center
Tue 08:24:41 PM 37.7100 -88.0778 48° Northeast 496 571 35,000  Level Indianapolis Center
Tue 08:25:43 PM 37.8081 -87.9353 49° Northeast 495 570 35,000  Level Indianapolis Center
Tue 08:26:45 PM 37.8997 -87.8042 48° Northeast 494 568 35,000  Level Indianapolis Center
Tue 08:27:46 PM 38.0064 -87.6992 38° Northeast 485 558 35,000  Level Indianapolis Center
Tue 08:28:48 PM 38.1228 -87.6194 28° Northeast 474 545 35,000  Level Indianapolis Center
Tue 08:29:49 PM 38.2456 -87.5528 23° Northeast 473 544 35,000 -98 Level Indianapolis Center
Tue 08:30:51 PM 38.3664 -87.4833 24° Northeast 470 541 34,800 -484 Descending Indianapolis Center
Tue 08:31:53 PM 38.4831 -87.3900 32° Northeast 483 556 34,000 -390 Descending Indianapolis Center
Tue 08:32:54 PM 38.5981 -87.2914 34° Northeast 488 562 34,000  Level Indianapolis Center
Tue 08:33:56 PM 38.7119 -87.1956 33° Northeast 484 557 34,000  Level Indianapolis Center
Tue 08:34:58 PM 38.8244 -87.1000 33° Northeast 482 555 34,000  Level Indianapolis Center
Tue 08:35:59 PM 38.9381 -87.0025 34° Northeast 487 560 34,000 -146 Level Indianapolis Center
Tue 08:37:01 PM 39.0739 -86.8864 34° Northeast 486 559 33,700 -726 Descending Indianapolis Center
Tue 08:38:03 PM 39.1892 -86.7872 34° Northeast 483 556 32,500 -1,122 Descending Indianapolis Center
Tue 08:39:04 PM 39.3036 -86.6878 34° Northeast 492 566 31,400 -732 Descending Indianapolis Center
Tue 08:40:06 PM 39.4178 -86.5892 34° Northeast 490 564 31,000 -195 Descending Indianapolis Center
Tue 08:41:07 PM 39.5314 -86.4894 34° Northeast 490 564 31,000  Level Indianapolis Center
Tue 08:42:09 PM 39.6450 -86.3897 34° Northeast 489 563 31,000  Level Indianapolis Center
Tue 08:43:10 PM 39.7542 -86.2914 35° Northeast 490 564 31,000  Level Indianapolis Center
Tue 08:44:12 PM 39.8817 -86.1806 34° Northeast 492 566 31,000  Level Indianapolis Center
Tue 08:45:13 PM 39.9958 -86.0786 34° Northeast 493 567 31,000  Level Indianapolis Center
Tue 08:46:15 PM 40.1103 -85.9772 34° Northeast 496 571 31,000  Level Indianapolis Center
Tue 08:47:01 PM 40.1861 -85.9092 34° Northeast 493 567 31,000 -56 Level Chicago Center
Tue 08:48:03 PM 40.3197 -85.7897 34° Northeast 495 570 30,900 -532 Descending Chicago Center
Tue 08:49:05 PM 40.4356 -85.6850 35° Northeast 502 578 29,900 -968 Descending Chicago Center
Tue 08:50:07 PM 40.5517 -85.5817 34° Northeast 501 577 28,900 -976 Descending Chicago Center
Tue 08:51:08 PM 40.6672 -85.4767 35° Northeast 503 579 27,900 -1,659 Descending Chicago Center
Tue 08:52:10 PM 40.7672 -85.3808 36° Northeast 495 570 25,500 -2,710 Descending Chicago Center
Tue 08:53:12 PM 40.8947 -85.2633 35° Northeast 473 544 22,300 -2,129 Descending Chicago Center
Tue 08:54:14 PM 41.0019 -85.1625 35° Northeast 475 547 21,100 -629 Descending Chicago Center
Tue 08:55:16 PM 41.1036 -85.0553 38° Northeast 473 544 21,000 -48 Descending Chicago Center
Tue 08:56:18 PM 41.2053 -84.9447 39° Northeast 474 545 21,000  Level Chicago Center
Tue 08:57:20 PM 41.3047 -84.8375 39° Northeast 468 539 21,000 -242 Level Chicago Center
Tue 08:58:22 PM 41.4244 -84.7081 39° Northeast 465 535 20,500 -1,065 Descending Chicago Center
Tue 08:59:24 PM 41.5081 -84.5781 49° Northeast 467 537 18,800 -1,620 Descending Chicago Center
Tue 09:00:02 PM 41.5553 -84.5017 50° Northeast 461 531 17,800 -1,286 Descending Cleveland Center
Tue 09:01:02 PM 41.6325 -84.3728 51° Northeast 449 517 16,700 -1,161 Descending Cleveland Center
Tue 09:01:35 PM 41.6789 -84.2922 52° Northeast 433 498 16,000 -1,500 Descending Cleveland Center
Tue 09:02:02 PM 41.7078 -84.2353 56° Northeast 438 504 15,200 -2,138 Descending Cleveland Center
Tue 09:03:02 PM 41.7825 -84.1117 51° Northeast 425 489 12,900 -1,613 Descending Cleveland Center
Tue 09:04:01 PM 41.8572 -83.9903 50° Northeast 416 479 12,000 -450 Descending Cleveland Center
Tue 09:05:02 PM 41.9317 -83.8686 51° Northeast 418 481 12,000  Level Cleveland Center
Tue 09:05:57 PM 42.0033 -83.7689 46° Northeast 413 475 12,000  Level Cleveland Center
Tue 09:07:02 PM 42.0839 -83.6442 49° Northeast 408 470 12,000  Level Cleveland Center
Tue 09:08:10 PM 42.1736 -83.5614 34° Northeast 326 375 12,000 -350 Level Cleveland Center
Tue 09:09:02 PM 42.2375 -83.5056 33° Northeast 316 364 11,300 -1,125 Descending Cleveland Center
Tue 09:10:02 PM 42.3142 -83.4475 29° Northeast 316 364 9,900 -1,700 Descending Cleveland Center
Tue 09:11:02 PM 42.3925 -83.3947 26° Northeast 310 357 7,900 -1,762 Descending Cleveland Center
Tue 09:12:08 PM 42.4708 -83.3389 28° Northeast 260 299 6,200 -1,353 Descending Cleveland Center
Tue 09:13:15 PM 42.4433 -83.2731 119° Southeast 174 200 4,900 -992 Descending Cleveland Center
Tue 09:14:21 PM 42.3914 -83.2597 169° South 164 189 4,000 -645 Descending Cleveland Center
Tue 09:15:16 PM 42.3558 -83.2722 195° South 158 182 3,600 -621 Descending Cleveland Center
Tue 09:16:17 PM 42.3197 -83.2986 208° Southwest 147 169 2,800 -787 Descending Cleveland Center

Login

Don't have an account? Register now (free) for customized features, flight alerts, and more!